Time;durP1;ratioP1;P1;durP2;ratioP2;P2;SDS_P1;SDS_P2;PMS_P1;PMS_P2;Temp;Humidity;BMP_temperature;BMP_pressure;BME280_temperature;BME280_humidity;BME280_pressure;Samples;Min_cycle;Max_cycle;Signal;HPM_P1;HPM_P2
2023/04/26 00:01:15;;;;;;;;;;;5.40;99.90;;;;;;5049731;28;19960;-85
2023/04/26 00:03:41;;;;;;;;;;;5.40;99.90;;;;;;5049748;28;19912;-87
2023/04/26 00:06:08;;;;;;;;;;;5.30;99.90;;;;;;5049173;28;19905;-84
2023/04/26 00:08:37;;;;;;;;;;;5.30;99.90;;;;;;5049026;28;19912;-84
2023/04/26 00:11:03;;;;;;;;;;;5.10;99.90;;;;;;5048367;28;19909;-85
2023/04/26 00:13:28;;;;;;;;;;;5.10;99.90;;;;;;5047514;28;19909;-85
2023/04/26 00:15:54;;;;;;;;;;;5.10;99.90;;;;;;5045792;28;19909;-84
2023/04/26 00:18:19;;;;;;;;;;;5.10;99.90;;;;;;5047027;28;20357;-84
2023/04/26 00:20:45;;;;;;;;;;;5.10;99.90;;;;;;5048396;28;19908;-85
2023/04/26 00:23:11;;;;;;;;;;;5.10;99.90;;;;;;5049017;28;19951;-87
2023/04/26 00:25:37;;;;;;;;;;;5.20;99.90;;;;;;5049147;28;20289;-86
2023/04/26 00:28:03;;;;;;;;;;;5.20;99.90;;;;;;5049226;28;20329;-87
2023/04/26 00:30:28;;;;;;;;;;;5.30;99.90;;;;;;5049538;28;19927;-88
2023/04/26 00:32:54;;;;;;;;;;;5.40;99.90;;;;;;5048587;28;20412;-88
2023/04/26 00:35:20;;;;;;;;;;;5.40;99.90;;;;;;5049217;28;19905;-86
2023/04/26 00:37:45;;;;;;;;;;;5.50;99.90;;;;;;5048925;28;19905;-86
2023/04/26 00:40:12;;;;;;;;;;;5.50;99.90;;;;;;5048881;28;19905;-87
2023/04/26 00:42:38;;;;;;;;;;;5.50;99.90;;;;;;5049093;28;19956;-89
2023/04/26 00:45:05;;;;;;;;;;;5.60;99.90;;;;;;5033481;28;19908;-88
2023/04/26 00:47:30;;;;;;;;;;;5.70;99.90;;;;;;5048878;28;20051;-87
2023/04/26 00:49:56;;;;;;;;;;;5.60;99.90;;;;;;5049374;28;19966;-87
2023/04/26 00:52:22;;;;;;;;;;;5.70;99.90;;;;;;5048437;28;19906;-86
2023/04/26 00:54:48;;;;;;;;;;;5.60;99.90;;;;;;5048901;28;19948;-87
2023/04/26 00:57:14;;;;;;;;;;;5.60;99.90;;;;;;5048391;28;19959;-87
2023/04/26 00:59:40;;;;;;;;;;;5.50;99.90;;;;;;5033395;28;19959;-87
2023/04/26 01:02:05;;;;;;;;;;;5.50;99.90;;;;;;5048389;28;19924;-86
2023/04/26 01:04:32;;;;;;;;;;;5.40;99.90;;;;;;5047406;28;20415;-87
2023/04/26 01:06:59;;;;;;;;;;;5.30;99.90;;;;;;5048613;28;19945;-87
2023/04/26 01:09:24;;;;;;;;;;;5.40;99.90;;;;;;5033401;28;19908;-87
2023/04/26 01:11:51;;;;;;;;;;;5.40;99.90;;;;;;5048690;28;19912;-86
2023/04/26 01:14:17;;;;;;;;;;;5.40;99.90;;;;;;5032829;28;20000;-83
2023/04/26 01:16:46;;;;;;;;;;;5.30;99.90;;;;;;5047882;28;19952;-85
2023/04/26 01:19:12;;;;;;;;;;;5.30;99.90;;;;;;5048063;28;20380;-85
2023/04/26 01:21:38;;;;;;;;;;;5.20;99.90;;;;;;5031989;28;20369;-85
2023/04/26 01:24:04;;;;;;;;;;;5.20;99.90;;;;;;5047849;28;19944;-85
2023/04/26 01:26:31;;;;;;;;;;;5.10;99.90;;;;;;5047228;28;19905;-85
2023/04/26 01:28:57;;;;;;;;;;;5.00;99.90;;;;;;5031332;28;20395;-85
2023/04/26 01:31:22;;;;;;;;;;;4.90;99.90;;;;;;5047784;28;20435;-85
2023/04/26 01:33:48;;;;;;;;;;;4.90;99.90;;;;;;5047976;28;19944;-85
2023/04/26 01:36:13;;;;;;;;;;;4.80;99.90;;;;;;5047660;28;19931;-85
2023/04/26 01:38:39;;;;;;;;;;;4.80;99.90;;;;;;5047846;28;19905;-84
2023/04/26 01:41:04;;;;;;;;;;;4.80;99.90;;;;;;5048163;28;19913;-85
2023/04/26 01:43:30;;;;;;;;;;;4.80;99.90;;;;;;5048186;28;19909;-86
2023/04/26 01:45:55;;;;;;;;;;;4.80;99.90;;;;;;5049494;28;20369;-84
2023/04/26 01:48:21;;;;;;;;;;;4.80;99.90;;;;;;5051196;28;19912;-83
2023/04/26 01:50:47;;;;;;;;;;;4.70;99.90;;;;;;5051375;28;19916;-85
2023/04/26 01:53:12;;;;;;;;;;;4.70;99.90;;;;;;5036098;28;19951;-86
2023/04/26 01:55:38;;;;;;;;;;;4.70;99.90;;;;;;5051488;28;19905;-86
2023/04/26 01:58:03;;;;;;;;;;;4.60;99.90;;;;;;5051289;28;20443;-85
2023/04/26 02:00:29;;;;;;;;;;;4.60;99.90;;;;;;5051483;28;19966;-86
2023/04/26 02:02:55;;;;;;;;;;;4.60;99.90;;;;;;5051429;28;20293;-85
2023/04/26 02:05:21;;;;;;;;;;;4.60;99.90;;;;;;5050926;28;20009;-85
2023/04/26 02:07:47;;;;;;;;;;;4.50;99.90;;;;;;5050945;28;19920;-87
2023/04/26 02:10:12;;;;;;;;;;;4.50;99.90;;;;;;5051976;28;19905;-86
2023/04/26 02:12:38;;;;;;;;;;;4.50;99.90;;;;;;5051510;28;19912;-86
2023/04/26 02:15:03;;;;;;;;;;;4.40;99.90;;;;;;5051670;28;19975;-87
2023/04/26 02:17:29;;;;;;;;;;;4.40;99.90;;;;;;5051827;28;19927;-87
2023/04/26 02:19:55;;;;;;;;;;;4.50;99.90;;;;;;5051726;28;19920;-86
2023/04/26 02:22:23;;;;;;;;;;;4.50;99.90;;;;;;5051466;28;19920;-87
2023/04/26 02:24:49;;;;;;;;;;;4.50;99.90;;;;;;5052050;28;19905;-87
2023/04/26 02:27:15;;;;;;;;;;;4.50;99.90;;;;;;5051536;28;20043;-85
2023/04/26 02:29:40;;;;;;;;;;;4.50;99.90;;;;;;5051741;28;20404;-88
2023/04/26 02:32:06;;;;;;;;;;;4.50;99.90;;;;;;5051086;28;20328;-88
2023/04/26 02:34:32;;;;;;;;;;;4.50;99.90;;;;;;5050397;28;20039;-85
2023/04/26 02:36:57;;;;;;;;;;;4.50;99.90;;;;;;5048371;28;19905;-86
2023/04/26 02:39:23;;;;;;;;;;;4.50;99.90;;;;;;5049802;28;19956;-86
2023/04/26 02:41:48;;;;;;;;;;;4.50;99.90;;;;;;5052339;28;19967;-85
2023/04/26 02:44:14;;;;;;;;;;;4.50;99.90;;;;;;5035584;28;19913;-83
2023/04/26 02:46:40;;;;;;;;;;;4.50;99.90;;;;;;5034834;28;19912;-84
2023/04/26 02:49:05;;;;;;;;;;;4.50;99.90;;;;;;5049853;28;19908;-84
2023/04/26 02:51:32;;;;;;;;;;;4.50;99.90;;;;;;5049646;28;19967;-85
2023/04/26 02:53:58;;;;;;;;;;;4.50;99.90;;;;;;5049522;28;19916;-83
2023/04/26 02:56:23;;;;;;;;;;;4.40;99.90;;;;;;5049167;28;19909;-84
2023/04/26 02:58:49;;;;;;;;;;;4.50;99.90;;;;;;5049853;28;19916;-84
2023/04/26 03:01:15;;;;;;;;;;;4.40;99.90;;;;;;5049631;28;20278;-84
2023/04/26 03:03:41;;;;;;;;;;;4.40;99.90;;;;;;5049919;28;19912;-86
2023/04/26 03:06:06;;;;;;;;;;;4.40;99.90;;;;;;5034908;28;19912;-86
2023/04/26 03:08:33;;;;;;;;;;;4.40;99.90;;;;;;5050360;28;19920;-85
2023/04/26 03:10:59;;;;;;;;;;;4.40;99.90;;;;;;5049916;28;19940;-85
2023/04/26 03:13:25;;;;;;;;;;;4.40;99.90;;;;;;5050462;28;20385;-86
2023/04/26 03:15:51;;;;;;;;;;;4.40;99.90;;;;;;5050621;28;19911;-86
2023/04/26 03:18:16;;;;;;;;;;;4.50;99.90;;;;;;5050236;28;19911;-86
2023/04/26 03:20:42;;;;;;;;;;;4.50;99.90;;;;;;5050393;28;20365;-87
2023/04/26 03:23:08;;;;;;;;;;;4.50;99.90;;;;;;5050099;28;19932;-86
2023/04/26 03:25:33;;;;;;;;;;;4.50;99.90;;;;;;5050171;28;20446;-87
2023/04/26 03:27:59;;;;;;;;;;;4.40;99.90;;;;;;5050173;28;19912;-86
2023/04/26 03:30:24;;;;;;;;;;;4.40;99.90;;;;;;5050111;28;19913;-86
2023/04/26 03:32:51;;;;;;;;;;;4.40;99.90;;;;;;5050628;28;19928;-85
2023/04/26 03:35:16;;;;;;;;;;;4.30;99.90;;;;;;5050098;28;19956;-87
2023/04/26 03:37:43;;;;;;;;;;;4.30;99.90;;;;;;5049774;28;19912;-85
2023/04/26 03:40:09;;;;;;;;;;;4.40;99.90;;;;;;5050086;28;19909;-84
2023/04/26 03:42:35;;;;;;;;;;;4.30;99.90;;;;;;5050081;28;19917;-87
2023/04/26 03:45:02;;;;;;;;;;;4.50;99.90;;;;;;5050675;28;20718;-86
2023/04/26 03:47:31;;;;;;;;;;;4.40;99.90;;;;;;5051202;28;19912;-86
2023/04/26 03:49:57;;;;;;;;;;;4.40;99.90;;;;;;5052353;28;19928;-88
2023/04/26 03:52:22;;;;;;;;;;;4.40;99.90;;;;;;5052967;28;19905;-85
2023/04/26 03:54:48;;;;;;;;;;;4.40;99.90;;;;;;5049620;28;19909;-86
2023/04/26 03:57:13;;;;;;;;;;;4.50;99.90;;;;;;5034199;28;20389;-86
2023/04/26 03:59:39;;;;;;;;;;;4.50;99.90;;;;;;5050138;28;19958;-86
2023/04/26 04:02:06;;;;;;;;;;;4.60;99.90;;;;;;5050011;28;19962;-85
2023/04/26 04:04:33;;;;;;;;;;;4.70;99.90;;;;;;5033900;28;20000;-88
2023/04/26 04:06:58;;;;;;;;;;;4.80;99.90;;;;;;5049175;28;20366;-86
2023/04/26 04:09:24;;;;;;;;;;;4.80;99.90;;;;;;5048517;28;20301;-88
2023/04/26 04:11:50;;;;;;;;;;;4.90;99.90;;;;;;5049957;28;19932;-87
2023/04/26 04:14:15;;;;;;;;;;;4.90;99.90;;;;;;5033452;28;19908;-87
2023/04/26 04:16:41;;;;;;;;;;;5.00;99.90;;;;;;5049249;28;20293;-86
2023/04/26 04:19:07;;;;;;;;;;;5.10;99.90;;;;;;5048997;28;19909;-85
2023/04/26 04:21:33;;;;;;;;;;;5.20;99.90;;;;;;5048496;28;19909;-86
2023/04/26 04:23:59;;;;;;;;;;;5.20;99.90;;;;;;5049241;28;19905;-86
2023/04/26 04:26:25;;;;;;;;;;;5.30;99.90;;;;;;5048334;28;19959;-86
2023/04/26 04:28:50;;;;;;;;;;;5.50;99.90;;;;;;5048817;28;19935;-86
2023/04/26 04:31:16;;;;;;;;;;;5.70;99.90;;;;;;5048366;28;19905;-87
2023/04/26 04:33:41;;;;;;;;;;;6.00;99.90;;;;;;5047970;28;20003;-84
2023/04/26 04:36:08;;;;;;;;;;;6.30;99.90;;;;;;5031881;28;19909;-88
2023/04/26 04:38:34;;;;;;;;;;;6.60;99.90;;;;;;5047906;28;19909;-86
2023/04/26 04:41:00;;;;;;;;;;;7.00;99.90;;;;;;5048197;28;20294;-86
2023/04/26 04:43:26;;;;;;;;;;;7.40;99.90;;;;;;5047997;28;20376;-86
2023/04/26 04:45:52;;;;;;;;;;;7.80;99.90;;;;;;5048042;28;19904;-87
2023/04/26 04:48:20;;;;;;;;;;;8.20;99.90;;;;;;5046514;28;20328;-84
2023/04/26 04:50:45;;;;;;;;;;;8.50;99.90;;;;;;5047828;28;19932;-86
2023/04/26 04:53:15;;;;;;;;;;;8.90;99.90;;;;;;5048062;28;19948;-86
2023/04/26 04:55:40;;;;;;;;;;;9.20;99.90;;;;;;5047302;28;19905;-86
2023/04/26 04:58:06;;;;;;;;;;;9.80;99.90;;;;;;5045524;28;20055;-87
2023/04/26 05:00:31;;;;;;;;;;;10.40;99.90;;;;;;5063184;28;20415;-83
2023/04/26 05:02:57;;;;;;;;;;;10.80;99.90;;;;;;5047125;28;20328;-88
2023/04/26 05:05:22;;;;;;;;;;;11.00;99.90;;;;;;5047413;28;19960;-84
2023/04/26 05:07:48;;;;;;;;;;;11.40;99.90;;;;;;5030974;28;19905;-84
2023/04/26 05:10:14;;;;;;;;;;;11.70;99.90;;;;;;5030683;28;19909;-85
2023/04/26 05:12:39;;;;;;;;;;;12.00;99.90;;;;;;5045421;28;19909;-84
2023/04/26 05:15:05;;;;;;;;;;;12.40;99.90;;;;;;5045658;28;19917;-86
2023/04/26 05:17:32;;;;;;;;;;;12.70;95.00;;;;;;5046391;28;19909;-86
2023/04/26 05:19:58;;;;;;;;;;;12.80;93.70;;;;;;5049054;28;19948;-87
2023/04/26 05:22:23;;;;;;;;;;;13.20;94.30;;;;;;5050029;28;19983;-87
2023/04/26 05:24:49;;;;;;;;;;;13.50;91.50;;;;;;5050310;28;19905;-87
2023/04/26 05:27:14;;;;;;;;;;;13.60;84.80;;;;;;5050398;28;19946;-85
2023/04/26 05:29:40;;;;;;;;;;;13.20;88.30;;;;;;5050778;28;20317;-86
2023/04/26 05:32:06;;;;;;;;;;;13.30;91.10;;;;;;5049595;28;20000;-86
2023/04/26 05:34:31;;;;;;;;;;;13.30;88.50;;;;;;5050519;28;19908;-85
2023/04/26 05:36:57;;;;;;;;;;;13.50;86.80;;;;;;5050296;28;19920;-86
2023/04/26 05:39:22;;;;;;;;;;;13.80;81.70;;;;;;5051004;28;19905;-86
2023/04/26 05:41:48;;;;;;;;;;;14.10;79.20;;;;;;5050866;28;19919;-87
2023/04/26 05:44:14;;;;;;;;;;;14.20;80.90;;;;;;5050002;28;19991;-84
2023/04/26 05:46:40;;;;;;;;;;;14.80;69.50;;;;;;5049662;28;19909;-84
2023/04/26 05:49:05;;;;;;;;;;;15.00;69.80;;;;;;5050108;28;20365;-84
2023/04/26 05:51:31;;;;;;;;;;;15.60;68.60;;;;;;5049824;28;20330;-85
2023/04/26 05:53:57;;;;;;;;;;;15.80;63.40;;;;;;5050698;28;19909;-85
2023/04/26 05:56:23;;;;;;;;;;;15.90;61.50;;;;;;5049923;28;19912;-85
2023/04/26 05:58:49;;;;;;;;;;;16.30;62.60;;;;;;5050317;28;20400;-85
2023/04/26 06:01:15;;;;;;;;;;;16.60;57.80;;;;;;5049726;28;19917;-83
2023/04/26 06:03:40;;;;;;;;;;;16.90;54.80;;;;;;5050329;28;19970;-85
2023/04/26 06:06:06;;;;;;;;;;;17.10;54.90;;;;;;5049734;28;19909;-85
2023/04/26 06:08:33;;;;;;;;;;;17.50;53.40;;;;;;5049936;28;19951;-85
2023/04/26 06:10:58;;;;;;;;;;;17.50;52.70;;;;;;5034075;28;19909;-84
2023/04/26 06:13:24;;;;;;;;;;;18.20;48.60;;;;;;5049204;28;20034;-85
2023/04/26 06:15:49;;;;;;;;;;;18.10;48.90;;;;;;5049769;28;19905;-85
2023/04/26 06:18:15;;;;;;;;;;;18.90;47.00;;;;;;5048785;28;19909;-85
2023/04/26 06:20:41;;;;;;;;;;;18.70;46.30;;;;;;5049641;28;19905;-86
2023/04/26 06:23:06;;;;;;;;;;;19.30;44.30;;;;;;5049692;28;20377;-84
2023/04/26 06:25:33;;;;;;;;;;;19.20;43.70;;;;;;5049298;28;19909;-83
2023/04/26 06:27:59;;;;;;;;;;;19.70;43.20;;;;;;5050029;28;19909;-85
2023/04/26 06:30:25;;;;;;;;;;;20.20;41.40;;;;;;5048211;28;19909;-84
2023/04/26 06:32:50;;;;;;;;;;;20.80;39.40;;;;;;5048481;28;19916;-85
2023/04/26 06:35:16;;;;;;;;;;;20.90;39.00;;;;;;5049729;28;19955;-85
2023/04/26 06:37:42;;;;;;;;;;;21.30;39.40;;;;;;5049349;28;20440;-85
2023/04/26 06:40:09;;;;;;;;;;;21.50;38.60;;;;;;5048993;28;19909;-84
2023/04/26 06:42:35;;;;;;;;;;;22.10;36.90;;;;;;5049239;28;19924;-84
2023/04/26 06:45:01;;;;;;;;;;;22.00;35.80;;;;;;5033438;28;19913;-85
2023/04/26 06:47:26;;;;;;;;;;;22.30;34.70;;;;;;5033606;28;19916;-84
2023/04/26 06:49:52;;;;;;;;;;;21.80;34.90;;;;;;5049718;28;19905;-86
2023/04/26 06:52:18;;;;;;;;;;;21.50;34.30;;;;;;5048757;28;19909;-85
2023/04/26 06:54:43;;;;;;;;;;;22.30;34.20;;;;;;5050009;28;19920;-85
2023/04/26 06:57:09;;;;;;;;;;;22.10;32.80;;;;;;5048449;28;19917;-85
2023/04/26 06:59:35;;;;;;;;;;;22.10;33.70;;;;;;5048774;28;19908;-85
2023/04/26 07:02:01;;;;;;;;;;;22.20;32.80;;;;;;5047977;28;19917;-86
2023/04/26 07:04:27;;;;;;;;;;;22.80;34.30;;;;;;5047604;28;19909;-85
2023/04/26 07:06:52;;;;;;;;;;;22.80;33.40;;;;;;5048579;28;19909;-85
2023/04/26 07:09:18;;;;;;;;;;;22.60;34.50;;;;;;5048337;28;19909;-85
2023/04/26 07:11:47;;;;;;;;;;;23.00;33.00;;;;;;5048574;28;19920;-84
2023/04/26 07:14:12;;;;;;;;;;;23.00;33.10;;;;;;5047513;28;20444;-83
2023/04/26 07:16:38;;;;;;;;;;;22.90;32.90;;;;;;5047632;28;19932;-85
2023/04/26 07:19:03;;;;;;;;;;;23.00;32.50;;;;;;5048305;28;19920;-83
2023/04/26 07:21:29;;;;;;;;;;;22.90;31.90;;;;;;5048270;28;19917;-84
2023/04/26 07:23:55;;;;;;;;;;;22.10;32.60;;;;;;5047828;28;19963;-84
2023/04/26 07:26:25;;;;;;;;;;;22.10;34.40;;;;;;5047758;28;19909;-85
2023/04/26 07:28:51;;;;;;;;;;;22.20;31.30;;;;;;5049017;28;19905;-85
2023/04/26 07:31:17;;;;;;;;;;;22.30;32.20;;;;;;5047673;28;19905;-85
2023/04/26 07:33:42;;;;;;;;;;;23.20;31.00;;;;;;5047877;28;19909;-84
2023/04/26 07:36:08;;;;;;;;;;;23.20;29.30;;;;;;5047459;28;19912;-84
2023/04/26 07:38:33;;;;;;;;;;;22.70;30.30;;;;;;5032992;28;20835;-85
2023/04/26 07:41:03;;;;;;;;;;;22.80;29.90;;;;;;5047159;28;19919;-85
2023/04/26 07:43:29;;;;;;;;;;;22.50;30.70;;;;;;5047362;28;19913;-86
2023/04/26 07:45:58;;;;;;;;;;;22.60;30.50;;;;;;5047455;28;19999;-85
2023/04/26 07:48:23;;;;;;;;;;;23.20;30.30;;;;;;5046920;28;19924;-85
2023/04/26 07:50:49;;;;;;;;;;;23.50;29.30;;;;;;5032470;28;20011;-85
2023/04/26 07:53:14;;;;;;;;;;;24.00;29.50;;;;;;5048797;28;19955;-85
2023/04/26 07:55:40;;;;;;;;;;;24.60;28.50;;;;;;5047472;28;20342;-85
2023/04/26 07:58:06;;;;;;;;;;;24.20;27.60;;;;;;5048098;28;19974;-84
2023/04/26 08:00:32;;;;;;;;;;;23.90;28.70;;;;;;5047014;28;19912;-85
2023/04/26 08:02:58;;;;;;;;;;;23.90;27.00;;;;;;5032872;28;19913;-85
2023/04/26 08:05:23;;;;;;;;;;;23.80;28.20;;;;;;5048074;28;20362;-84
2023/04/26 08:07:49;;;;;;;;;;;22.70;29.20;;;;;;5047845;28;19909;-84
2023/04/26 08:10:14;;;;;;;;;;;21.90;29.80;;;;;;5048494;28;19909;-82
2023/04/26 08:12:40;;;;;;;;;;;21.10;30.00;;;;;;5032216;28;19905;-83
2023/04/26 08:15:07;;;;;;;;;;;20.00;31.20;;;;;;5047819;28;20285;-84
2023/04/26 08:17:32;;;;;;;;;;;19.10;32.50;;;;;;5048253;28;19975;-84
2023/04/26 08:19:58;;;;;;;;;;;18.30;36.10;;;;;;5048313;28;20374;-84
2023/04/26 08:22:24;;;;;;;;;;;17.90;35.80;;;;;;5047836;28;19917;-86
2023/04/26 08:24:50;;;;;;;;;;;17.30;37.10;;;;;;5048307;28;19905;-86
2023/04/26 08:27:16;;;;;;;;;;;16.50;38.70;;;;;;5048577;28;19906;-86
2023/04/26 08:29:42;;;;;;;;;;;15.90;42.30;;;;;;5047924;28;19905;-86
2023/04/26 08:32:07;;;;;;;;;;;15.50;42.80;;;;;;5048126;28;19908;-85
2023/04/26 08:34:33;;;;;;;;;;;15.10;42.30;;;;;;5048061;28;20409;-86
2023/04/26 08:36:59;;;;;;;;;;;14.90;49.30;;;;;;5031671;28;19908;-86
2023/04/26 08:39:24;;;;;;;;;;;14.80;64.30;;;;;;5048516;28;20405;-86
2023/04/26 08:41:56;;;;;;;;;;;14.70;67.00;;;;;;5047981;28;19936;-85
2023/04/26 08:44:24;;;;;;;;;;;14.50;66.20;;;;;;5047422;28;19905;-86
2023/04/26 08:46:50;;;;;;;;;;;14.50;55.50;;;;;;5047562;28;19912;-83
2023/04/26 08:49:36;;;;;;;;;;;14.50;57.00;;;;;;5048193;28;19905;-85
2023/04/26 08:52:03;;;;;;;;;;;14.50;54.80;;;;;;5029224;28;19935;-84
2023/04/26 08:54:30;;;;;;;;;;;14.40;55.80;;;;;;5046437;28;19955;-86
2023/04/26 08:56:57;;;;;;;;;;;14.30;52.90;;;;;;5047416;28;19917;-84
2023/04/26 08:59:23;;;;;;;;;;;14.10;53.20;;;;;;5048560;28;19945;-84
2023/04/26 09:01:48;;;;;;;;;;;14.00;54.00;;;;;;5032834;28;19955;-84
2023/04/26 09:04:14;;;;;;;;;;;13.90;62.40;;;;;;5032280;28;20373;-83
2023/04/26 09:06:40;;;;;;;;;;;13.90;65.00;;;;;;5031697;28;19912;-83
2023/04/26 09:09:07;;;;;;;;;;;13.90;69.60;;;;;;5031775;28;19937;-84
2023/04/26 09:12:02;;;;;;;;;;;13.90;74.60;;;;;;5064241;28;20019;-83
2023/04/26 09:14:28;;;;;;;;;;;13.90;76.90;;;;;;5022404;28;20362;-84
2023/04/26 09:16:53;;;;;;;;;;;13.70;79.60;;;;;;5032774;28;19909;-85
2023/04/26 09:19:35;;;;;;;;;;;13.70;81.00;;;;;;5031961;28;20535;-83
2023/04/26 09:22:01;;;;;;;;;;;13.70;81.80;;;;;;5047687;28;20336;-84
2023/04/26 09:24:27;;;;;;;;;;;13.70;79.10;;;;;;5048407;28;19920;-85
2023/04/26 09:27:04;;;;;;;;;;;13.70;78.20;;;;;;5032625;28;19905;-85
2023/04/26 09:29:30;;;;;;;;;;;13.80;87.90;;;;;;5048437;28;19905;-85
2023/04/26 09:31:57;;;;;;;;;;;13.80;87.30;;;;;;5032436;28;19928;-85
2023/04/26 09:34:23;;;;;;;;;;;13.90;87.40;;;;;;5047697;28;19916;-84
2023/04/26 09:36:54;;;;;;;;;;;13.90;84.90;;;;;;5045769;28;19909;-85
2023/04/26 09:39:32;;;;;;;;;;;14.00;84.00;;;;;;5046381;28;19905;-85
2023/04/26 09:41:58;;;;;;;;;;;14.00;83.40;;;;;;5047134;28;20301;-84
2023/04/26 09:44:24;;;;;;;;;;;13.90;77.50;;;;;;5046619;28;19905;-84
2023/04/26 09:46:56;;;;;;;;;;;13.90;80.60;;;;;;5046947;28;20312;-84
2023/04/26 09:49:22;;;;;;;;;;;13.90;78.30;;;;;;5047105;28;19905;-84
2023/04/26 09:52:01;;;;;;;;;;;13.90;81.70;;;;;;5047085;28;19912;-85
2023/04/26 09:54:53;;;;;;;;;;;13.90;87.00;;;;;;5047400;28;19912;-84
2023/04/26 09:57:19;;;;;;;;;;;13.90;87.40;;;;;;5028180;28;19970;-84
2023/04/26 09:59:45;;;;;;;;;;;13.70;89.00;;;;;;5032498;28;20000;-85
2023/04/26 10:02:15;;;;;;;;;;;13.80;86.80;;;;;;5047805;28;19913;-85
2023/04/26 10:04:46;;;;;;;;;;;13.90;87.20;;;;;;5046359;28;19912;-84
2023/04/26 10:07:12;;;;;;;;;;;14.00;90.30;;;;;;5048844;28;19970;-85
2023/04/26 10:09:38;;;;;;;;;;;14.10;90.00;;;;;;5051497;28;19912;-86
2023/04/26 10:12:03;;;;;;;;;;;14.20;88.10;;;;;;5051660;28;19995;-85
2023/04/26 10:14:30;;;;;;;;;;;14.20;90.70;;;;;;5035747;28;20334;-86
2023/04/26 10:16:55;;;;;;;;;;;14.30;90.40;;;;;;5035647;28;19908;-85
2023/04/26 10:19:21;;;;;;;;;;;14.10;87.00;;;;;;5051431;28;19955;-86
2023/04/26 10:21:48;;;;;;;;;;;14.10;91.20;;;;;;5051144;28;19913;-85
2023/04/26 10:24:14;;;;;;;;;;;14.20;83.70;;;;;;5051133;28;19912;-85
2023/04/26 10:26:50;;;;;;;;;;;14.30;82.10;;;;;;5049916;28;19913;-85
2023/04/26 10:29:16;;;;;;;;;;;14.40;77.30;;;;;;5050180;28;19999;-84
2023/04/26 10:32:07;;;;;;;;;;;14.50;77.20;;;;;;5034770;28;20471;-86
2023/04/26 10:34:34;;;;;;;;;;;14.60;88.20;;;;;;5050821;28;19909;-85
2023/04/26 10:37:12;;;;;;;;;;;14.90;78.60;;;;;;5050672;28;19911;-86
2023/04/26 10:39:47;;;;;;;;;;;15.20;74.80;;;;;;5050646;28;19905;-86
2023/04/26 10:42:22;;;;;;;;;;;15.50;76.80;;;;;;5049187;28;19917;-85
2023/04/26 10:45:08;;;;;;;;;;;15.90;75.80;;;;;;5050899;28;19946;-86
2023/04/26 10:47:35;;;;;;;;;;;16.30;70.90;;;;;;5026797;28;19913;-86
2023/04/26 10:50:02;;;;;;;;;;;16.50;59.50;;;;;;5050389;28;19912;-85
2023/04/26 10:52:28;;;;;;;;;;;16.60;55.60;;;;;;5050301;28;19917;-86
2023/04/26 10:54:55;;;;;;;;;;;17.00;51.50;;;;;;5049880;28;19909;-85
2023/04/26 10:57:21;;;;;;;;;;;17.20;47.70;;;;;;5050569;28;19996;-86
2023/04/26 11:00:07;;;;;;;;;;;17.30;45.30;;;;;;5049908;28;19905;-86
2023/04/26 11:02:48;;;;;;;;;;;17.30;46.00;;;;;;5065392;28;19913;-87
2023/04/26 11:05:32;;;;;;;;;;;17.50;42.80;;;;;;5048481;28;19955;-86
2023/04/26 11:08:05;;;;;;;;;;;17.90;43.60;;;;;;5066128;28;19905;-87
2023/04/26 11:10:31;;;;;;;;;;;18.00;40.40;;;;;;5049923;28;19944;-87
2023/04/26 11:13:01;;;;;;;;;;;17.90;39.60;;;;;;5049487;28;19952;-86
2023/04/26 11:15:26;;;;;;;;;;;17.90;39.60;;;;;;5050119;28;19909;-85
2023/04/26 11:17:52;;;;;;;;;;;17.80;39.10;;;;;;5048997;28;19963;-87
2023/04/26 11:20:17;;;;;;;;;;;17.70;41.20;;;;;;5049839;28;20329;-85
2023/04/26 11:22:43;;;;;;;;;;;17.40;38.70;;;;;;5050428;28;20320;-87
2023/04/26 11:25:12;;;;;;;;;;;17.10;38.10;;;;;;5049403;28;20396;-87
2023/04/26 11:27:37;;;;;;;;;;;17.10;38.80;;;;;;5050234;28;19905;-87
2023/04/26 11:30:03;;;;;;;;;;;17.10;39.30;;;;;;5049736;28;19996;-86
2023/04/26 11:32:29;;;;;;;;;;;17.10;38.90;;;;;;5049867;28;20244;-87
2023/04/26 11:34:58;;;;;;;;;;;16.90;38.90;;;;;;5050233;28;20350;-86
2023/04/26 11:37:24;;;;;;;;;;;16.70;39.10;;;;;;5050252;28;19995;-87
2023/04/26 11:39:50;;;;;;;;;;;16.60;37.20;;;;;;5049961;28;19933;-86
2023/04/26 11:42:15;;;;;;;;;;;16.30;37.80;;;;;;5049601;28;20003;-87
2023/04/26 11:44:41;;;;;;;;;;;16.20;37.30;;;;;;5049616;28;19913;-86
2023/04/26 11:47:07;;;;;;;;;;;15.90;36.00;;;;;;5049366;28;20385;-87
2023/04/26 11:49:35;;;;;;;;;;;15.70;40.50;;;;;;5049572;28;19905;-86
2023/04/26 11:52:01;;;;;;;;;;;15.60;69.10;;;;;;5049888;28;19944;-86
2023/04/26 11:54:31;;;;;;;;;;;15.10;79.20;;;;;;5047918;28;20370;-87
2023/04/26 11:57:00;;;;;;;;;;;14.70;72.60;;;;;;5047565;28;20000;-87
2023/04/26 11:59:28;;;;;;;;;;;14.40;90.80;;;;;;5049351;28;20361;-87
2023/04/26 12:01:54;;;;;;;;;;;14.00;96.80;;;;;;5049234;28;19999;-86
2023/04/26 12:04:26;;;;;;;;;;;13.90;99.70;;;;;;5050931;28;19932;-86
2023/04/26 12:06:51;;;;;;;;;;;13.90;99.40;;;;;;5050299;28;19921;-86
2023/04/26 12:09:21;;;;;;;;;;;13.90;98.50;;;;;;5048931;28;19912;-84
2023/04/26 12:11:59;;;;;;;;;;;13.70;99.90;;;;;;5048822;28;19908;-85
2023/04/26 12:14:31;;;;;;;;;;;13.50;99.90;;;;;;5047734;28;19960;-85
2023/04/26 12:17:01;;;;;;;;;;;13.50;99.90;;;;;;5047657;28;20324;-85
2023/04/26 12:19:28;;;;;;;;;;;13.50;99.20;;;;;;5047314;28;19909;-84
2023/04/26 12:21:54;;;;;;;;;;;13.50;99.60;;;;;;5048263;28;19913;-84
2023/04/26 12:24:24;;;;;;;;;;;13.70;85.70;;;;;;5048982;28;19909;-85
2023/04/26 12:26:49;;;;;;;;;;;13.80;89.30;;;;;;5048558;28;20389;-86
2023/04/26 12:29:15;;;;;;;;;;;14.00;64.60;;;;;;5046851;28;19909;-83
2023/04/26 12:31:41;;;;;;;;;;;14.30;57.90;;;;;;5048373;28;19996;-86
2023/04/26 12:34:07;;;;;;;;;;;14.40;53.90;;;;;;5048789;28;19912;-85
2023/04/26 12:36:32;;;;;;;;;;;14.60;52.60;;;;;;5048534;28;19905;-86
2023/04/26 12:38:59;;;;;;;;;;;14.80;47.80;;;;;;5048397;28;19958;-86
2023/04/26 12:41:25;;;;;;;;;;;14.90;51.10;;;;;;5048476;28;20011;-85
2023/04/26 12:43:51;;;;;;;;;;;14.70;78.40;;;;;;5048411;28;20070;-86
2023/04/26 12:46:16;;;;;;;;;;;14.70;53.10;;;;;;5045832;28;19905;-85
2023/04/26 12:48:42;;;;;;;;;;;14.60;48.20;;;;;;5046202;28;19932;-86
2023/04/26 12:51:08;;;;;;;;;;;14.70;46.20;;;;;;5047205;28;19929;-86
2023/04/26 12:53:33;;;;;;;;;;;14.90;45.80;;;;;;5047425;28;20062;-85
2023/04/26 12:55:59;;;;;;;;;;;15.10;45.40;;;;;;5046869;28;19912;-86
2023/04/26 12:58:25;;;;;;;;;;;15.20;43.40;;;;;;5047771;28;19916;-86
2023/04/26 13:00:50;;;;;;;;;;;15.10;42.60;;;;;;5048384;28;19905;-86
2023/04/26 13:03:16;;;;;;;;;;;15.10;43.50;;;;;;5046890;28;19909;-85
2023/04/26 13:05:42;;;;;;;;;;;15.00;41.70;;;;;;5047131;28;19963;-85
2023/04/26 13:08:07;;;;;;;;;;;14.80;42.30;;;;;;5032864;28;19905;-86
2023/04/26 13:10:33;;;;;;;;;;;14.70;43.70;;;;;;5047154;28;19949;-85
2023/04/26 13:12:58;;;;;;;;;;;14.70;41.30;;;;;;5045212;28;19991;-86
2023/04/26 13:15:25;;;;;;;;;;;14.70;42.00;;;;;;5046170;28;19956;-86
2023/04/26 13:17:51;;;;;;;;;;;14.70;41.90;;;;;;5047082;28;19936;-86
2023/04/26 13:20:16;;;;;;;;;;;14.70;41.60;;;;;;5047104;28;19955;-85
2023/04/26 13:22:42;;;;;;;;;;;14.60;41.50;;;;;;5047941;28;19948;-86
2023/04/26 13:25:09;;;;;;;;;;;14.50;43.20;;;;;;5046245;28;19909;-85
2023/04/26 13:27:35;;;;;;;;;;;14.50;41.20;;;;;;5046617;28;19913;-85
2023/04/26 13:30:02;;;;;;;;;;;14.40;41.50;;;;;;5046271;28;19909;-86
2023/04/26 13:32:27;;;;;;;;;;;14.40;42.10;;;;;;5030291;28;19944;-86
2023/04/26 13:34:53;;;;;;;;;;;14.40;41.40;;;;;;5047057;28;19944;-86
2023/04/26 13:37:20;;;;;;;;;;;14.30;41.30;;;;;;5048249;28;19955;-87
2023/04/26 13:39:46;;;;;;;;;;;14.30;41.60;;;;;;5048211;28;19996;-86
2023/04/26 13:42:12;;;;;;;;;;;14.20;41.30;;;;;;5034549;28;19917;-85
2023/04/26 13:44:38;;;;;;;;;;;14.20;42.70;;;;;;5050746;28;20464;-87
2023/04/26 13:47:05;;;;;;;;;;;14.20;42.20;;;;;;5051196;28;19945;-87
2023/04/26 13:49:30;;;;;;;;;;;14.20;42.00;;;;;;5050883;28;19905;-87
2023/04/26 13:51:56;;;;;;;;;;;14.10;41.10;;;;;;5051817;28;19912;-86
2023/04/26 13:54:22;;;;;;;;;;;14.10;41.80;;;;;;5050625;28;19915;-86
2023/04/26 13:56:47;;;;;;;;;;;14.20;40.50;;;;;;5049278;28;20393;-86
2023/04/26 13:59:13;;;;;;;;;;;14.10;40.00;;;;;;5068241;28;19963;-87
2023/04/26 14:01:39;;;;;;;;;;;14.10;40.30;;;;;;5050101;28;20381;-85
2023/04/26 14:04:05;;;;;;;;;;;14.10;39.40;;;;;;5050207;28;19920;-86
2023/04/26 14:06:34;;;;;;;;;;;14.00;38.00;;;;;;5049689;28;19905;-85
2023/04/26 14:09:00;;;;;;;;;;;14.10;38.10;;;;;;5049427;28;19905;-83
2023/04/26 14:11:26;;;;;;;;;;;13.90;39.20;;;;;;5052384;28;19996;-86
2023/04/26 14:13:54;;;;;;;;;;;13.80;40.80;;;;;;5050300;28;19905;-85
2023/04/26 14:16:23;;;;;;;;;;;13.90;41.30;;;;;;5048999;28;19916;-85
2023/04/26 14:18:49;;;;;;;;;;;13.70;39.00;;;;;;5051127;28;19952;-87